aviador You're here:

KOFP Decoded Metar

RICHMOND/HANOVER in VA, USA
Report Time2018-05-23 15:54:00
UTC Time2018-05-23 16:36:30
Flight Rules vfr VFR
Wind300° at 06 kt
W.Decomp.*RWY 34: 5.1 kt HW 3.1 kt LCW
W.Rank300° ranks 13
Current wind is below 300° avg. (7.9)
Visibility9999 m
Phenomena:N/A
Clouds:N/A
Expected CloudBase > 3,200 ft AGL from Temp-Dew spread
CeilingNone
Temp28°C (ISA +13)
Dew Point20°C (62% RH)
Heat Index29.7°C
QNH1017 hPa
Density Alt1,919 ft
Elevation203 ft
Report Wrong Elevation
Raw Report
METAR KOFP 231554Z AUTO 30006KT 10SM CLR 28/20 A3002 RMK AO2 SLP164
T02830200=

Extra information for KOFP:More info

Metar Taf Metar & Taf Last 4 Metars F.Rules Stats Wind Profile Meteogram Temp Stats Airport Information Weather charts Add Link Nearby VenuesMetar ALERT Operation Metar Decoded Social comments

AIRNAV info for KOFP